createdAt,value
2022-11-25T00:02:29.888Z,77.15
2022-11-25T00:07:50.586Z,76.81
2022-11-25T00:13:11.387Z,76.92
2022-11-25T00:18:32.272Z,76.82
2022-11-25T00:23:54.036Z,77.26
2022-11-25T00:29:15.176Z,76.80
2022-11-25T00:34:35.915Z,77.10
2022-11-25T00:39:57.081Z,76.93
2022-11-25T00:45:17.819Z,77.20
2022-11-25T00:50:38.727Z,77.15
2022-11-25T00:56:14.825Z,76.79
2022-11-25T01:01:36.658Z,76.92
2022-11-25T01:06:59.802Z,77.36
2022-11-25T01:12:20.290Z,77.27
2022-11-25T01:17:41.329Z,77.31
2022-11-25T01:23:02.110Z,76.96
2022-11-25T01:28:23.044Z,77.15
2022-11-25T01:33:46.907Z,77.17
2022-11-25T01:39:16.026Z,76.74
2022-11-25T01:44:39.427Z,76.98
2022-11-25T01:50:02.655Z,77.24
2022-11-25T01:55:23.514Z,77.01
2022-11-25T02:00:51.513Z,76.81
2022-11-25T02:06:20.004Z,76.64
2022-11-25T02:11:42.924Z,76.89
2022-11-25T02:17:03.889Z,76.95
2022-11-25T02:22:45.448Z,76.54
2022-11-25T02:28:09.170Z,76.32
2022-11-25T02:33:32.401Z,76.35
2022-11-25T02:38:57.762Z,76.22
2022-11-25T02:44:20.375Z,76.14
2022-11-25T02:49:41.013Z,76.66
2022-11-25T02:55:01.662Z,75.71
2022-11-25T03:00:22.561Z,75.74
2022-11-25T03:05:43.393Z,76.22
2022-11-25T03:11:04.773Z,76.41
2022-11-25T03:16:26.451Z,76.58
2022-11-25T03:21:47.271Z,76.61
2022-11-25T03:27:08.084Z,76.43
2022-11-25T03:32:29.035Z,76.49
2022-11-25T03:37:49.692Z,76.58
2022-11-25T03:43:10.492Z,76.89
2022-11-25T03:48:33.459Z,76.75
2022-11-25T03:53:54.159Z,76.47
2022-11-25T03:59:16.149Z,76.74
2022-11-25T04:04:37.414Z,76.54
2022-11-25T04:09:58.481Z,76.26
2022-11-25T04:15:22.509Z,76.59
2022-11-25T04:20:47.174Z,76.49
2022-11-25T04:26:07.652Z,76.30
2022-11-25T04:31:33.032Z,76.62
2022-11-25T04:36:53.983Z,76.75
2022-11-25T04:42:33.141Z,76.40
2022-11-25T04:47:56.013Z,76.54
2022-11-25T04:53:17.600Z,76.26
2022-11-25T04:58:56.978Z,76.11
2022-11-25T05:04:17.731Z,76.51
2022-11-25T05:09:38.814Z,76.06
2022-11-25T05:15:22.240Z,75.82
2022-11-25T05:20:43.439Z,75.70
2022-11-25T05:26:04.528Z,75.67
2022-11-25T05:31:37.288Z,76.09
2022-11-25T05:36:59.109Z,75.93
2022-11-25T05:42:20.781Z,75.37
2022-11-25T05:47:42.385Z,75.82
2022-11-25T05:53:04.413Z,75.75
2022-11-25T05:58:28.467Z,74.83
2022-11-25T06:03:52.035Z,75.34
2022-11-25T06:09:14.000Z,75.08
2022-11-25T06:14:35.151Z,75.28
2022-11-25T06:19:56.335Z,75.16
2022-11-25T06:25:17.909Z,74.52
2022-11-25T06:30:40.278Z,74.58
2022-11-25T06:36:17.060Z,74.24
2022-11-25T06:41:37.780Z,74.38
2022-11-25T06:46:58.392Z,73.97
2022-11-25T06:52:19.358Z,74.12
2022-11-25T06:57:39.796Z,74.28
2022-11-25T07:03:00.657Z,74.23
2022-11-25T07:08:25.648Z,73.87
2022-11-25T07:13:48.321Z,74.38
2022-11-25T07:19:10.446Z,73.88
2022-11-25T07:24:31.103Z,73.72
2022-11-25T07:30:03.549Z,74.20
2022-11-25T07:35:33.869Z,73.27
2022-11-25T07:40:54.621Z,74.43
2022-11-25T07:46:22.023Z,74.81
2022-11-25T07:51:56.905Z,75.67
2022-11-25T07:57:17.904Z,75.31
2022-11-25T08:02:38.599Z,75.60
2022-11-25T08:07:59.643Z,76.08
2022-11-25T08:13:20.447Z,75.66
2022-11-25T08:18:41.823Z,75.69
2022-11-25T08:24:03.266Z,76.11
2022-11-25T08:29:23.838Z,75.88
2022-11-25T08:34:44.732Z,76.62
2022-11-25T08:40:07.497Z,75.74
2022-11-25T08:45:28.951Z,76.66
2022-11-25T08:50:53.808Z,76.08
2022-11-25T08:56:15.187Z,76.24
2022-11-25T09:01:36.194Z,76.34
2022-11-25T09:06:57.110Z,76.59
2022-11-25T09:12:18.266Z,76.41
2022-11-25T09:17:39.030Z,76.04
2022-11-25T09:23:00.456Z,76.21
2022-11-25T09:28:21.872Z,77.15
2022-11-25T09:33:42.592Z,76.40
2022-11-25T09:39:03.646Z,76.24
2022-11-25T09:45:00.842Z,76.54
2022-11-25T09:50:29.404Z,77.06
2022-11-25T09:56:00.036Z,77.35
2022-11-25T10:01:23.894Z,77.11
2022-11-25T10:06:55.360Z,77.74
2022-11-25T10:12:24.597Z,77.34
2022-11-25T10:17:49.402Z,77.57
2022-11-25T10:23:23.526Z,77.51
2022-11-25T10:28:55.954Z,77.17
2022-11-25T10:34:35.370Z,77.81
2022-11-25T10:39:57.513Z,77.85
2022-11-25T10:45:20.744Z,77.38
2022-11-25T10:50:55.133Z,77.20
2022-11-25T10:56:19.239Z,77.39
2022-11-25T11:01:39.754Z,77.07
2022-11-25T11:07:07.639Z,77.29
2022-11-25T11:12:29.541Z,77.66
2022-11-25T11:17:50.525Z,77.64
2022-11-25T11:23:15.405Z,79.29
2022-11-25T11:28:37.103Z,77.53
2022-11-25T11:34:11.961Z,77.70
2022-11-25T11:39:51.814Z,78.05
2022-11-25T11:45:35.337Z,77.92
2022-11-25T11:51:08.543Z,77.89
2022-11-25T11:56:37.027Z,77.78
2022-11-25T12:02:18.334Z,78.08
2022-11-25T12:07:48.434Z,77.97
2022-11-25T12:13:35.709Z,77.89
2022-11-25T12:18:59.382Z,77.88
2022-11-25T12:24:23.286Z,77.64
2022-11-25T12:29:53.386Z,77.73
2022-11-25T12:35:20.567Z,78.10
2022-11-25T12:40:54.491Z,77.47
2022-11-25T12:46:15.725Z,77.46
2022-11-25T12:51:52.119Z,77.70
2022-11-25T12:57:27.999Z,77.74
2022-11-25T13:02:48.937Z,77.86
2022-11-25T13:08:36.288Z,77.72
2022-11-25T13:13:57.243Z,77.73
2022-11-25T13:19:19.451Z,77.69
2022-11-25T13:24:41.304Z,78.15
2022-11-25T13:30:02.302Z,77.43
2022-11-25T13:35:23.440Z,77.46
2022-11-25T13:40:56.128Z,77.50
2022-11-25T13:46:28.202Z,77.44
2022-11-25T13:51:53.941Z,77.38
2022-11-25T13:57:18.930Z,77.30
2022-11-25T14:02:45.106Z,77.24
2022-11-25T14:08:26.515Z,77.15
2022-11-25T14:14:06.145Z,76.79
2022-11-25T14:25:26.610Z,76.41
2022-11-25T14:30:53.542Z,76.57
2022-11-25T14:36:17.887Z,76.31
2022-11-25T14:41:42.320Z,76.27
2022-11-25T14:47:04.659Z,76.16
2022-11-25T14:52:28.491Z,76.28
2022-11-25T14:57:49.297Z,76.22
2022-11-25T15:03:17.850Z,76.84
2022-11-25T15:08:41.450Z,76.76
2022-11-25T15:14:03.473Z,76.67
2022-11-25T15:19:32.140Z,76.46
2022-11-25T15:24:56.327Z,75.85
2022-11-25T15:30:22.679Z,77.80
2022-11-25T15:35:44.357Z,76.57
2022-11-25T15:41:06.644Z,76.47
2022-11-25T15:46:28.386Z,76.16
2022-11-25T15:51:58.997Z,76.45
2022-11-25T15:57:25.809Z,76.24
2022-11-25T16:02:46.336Z,76.46
2022-11-25T16:08:19.508Z,76.48
2022-11-25T16:13:40.285Z,75.98
2022-11-25T16:19:10.235Z,75.64
2022-11-25T16:24:32.970Z,76.17
2022-11-25T16:30:08.269Z,75.50
2022-11-25T16:35:29.006Z,75.89
2022-11-25T16:40:51.252Z,75.76
2022-11-25T16:46:15.864Z,75.80
2022-11-25T16:51:36.728Z,75.57
2022-11-25T16:56:58.280Z,75.42
2022-11-25T17:02:20.248Z,75.33
2022-11-25T17:07:41.686Z,75.40
2022-11-25T17:13:03.050Z,75.08
2022-11-25T17:18:25.492Z,75.29
2022-11-25T17:23:48.422Z,75.23
2022-11-25T17:29:14.830Z,75.45
2022-11-25T17:34:39.471Z,75.08
2022-11-25T17:40:04.135Z,80.22
2022-11-25T17:45:25.117Z,75.19
2022-11-25T17:50:46.980Z,75.08
2022-11-25T17:56:19.054Z,74.89
2022-11-25T18:01:39.918Z,74.93
2022-11-25T18:07:00.821Z,74.36
2022-11-25T18:12:26.241Z,74.15
2022-11-25T18:17:47.563Z,73.95
2022-11-25T18:23:09.665Z,74.62
2022-11-25T18:28:31.057Z,74.19
2022-11-25T18:33:51.765Z,74.16
2022-11-25T18:39:12.802Z,73.72
2022-11-25T18:44:37.981Z,73.94
2022-11-25T18:49:59.237Z,74.51
2022-11-25T18:55:21.035Z,74.62
2022-11-25T19:00:41.870Z,74.28
2022-11-25T19:06:03.344Z,74.23
2022-11-25T19:11:32.378Z,74.38
2022-11-25T19:16:53.945Z,74.35
2022-11-25T19:22:15.799Z,74.59
2022-11-25T19:27:40.814Z,74.43
2022-11-25T19:33:02.119Z,74.52
2022-11-25T19:38:26.041Z,74.40
2022-11-25T19:43:47.122Z,74.55
2022-11-25T19:49:09.998Z,74.42
2022-11-25T19:54:30.630Z,75.07
2022-11-25T19:59:52.834Z,74.65
2022-11-25T20:05:17.370Z,74.88
2022-11-25T20:10:38.178Z,74.25
2022-11-25T20:15:59.233Z,74.33
2022-11-25T20:21:27.189Z,74.66
2022-11-25T20:26:48.982Z,74.57
2022-11-25T20:32:17.941Z,74.60
2022-11-25T20:37:51.502Z,74.87
2022-11-25T20:43:23.706Z,74.76
2022-11-25T20:48:44.934Z,74.70
2022-11-25T20:54:06.866Z,74.51
2022-11-25T20:59:28.739Z,74.93
2022-11-25T21:04:49.664Z,75.05
2022-11-25T21:10:19.060Z,75.30
2022-11-25T21:15:39.695Z,75.16
2022-11-25T21:21:00.554Z,75.56
2022-11-25T21:26:23.213Z,75.67
2022-11-25T21:31:44.062Z,75.32
2022-11-25T21:37:04.640Z,75.15
2022-11-25T21:42:25.932Z,74.91
2022-11-25T21:47:46.750Z,74.97
2022-11-25T21:53:17.549Z,74.92
2022-11-25T21:58:38.909Z,75.43
2022-11-25T22:03:59.802Z,74.86
2022-11-25T22:09:20.899Z,75.00
2022-11-25T22:14:41.528Z,75.41
2022-11-25T22:20:05.492Z,75.89
2022-11-25T22:25:28.645Z,75.64
2022-11-25T22:30:51.038Z,75.68
2022-11-25T22:36:32.675Z,75.26
2022-11-25T22:41:56.412Z,75.94
2022-11-25T22:47:36.175Z,75.86
2022-11-25T22:52:57.973Z,75.90
2022-11-25T22:58:20.121Z,76.08
2022-11-25T23:03:41.633Z,75.79
2022-11-25T23:09:03.024Z,75.85
2022-11-25T23:14:23.955Z,75.75
2022-11-25T23:19:44.868Z,76.25
2022-11-25T23:25:05.928Z,76.52
2022-11-25T23:30:28.070Z,76.00
2022-11-25T23:35:49.220Z,75.97
2022-11-25T23:41:20.927Z,76.38
2022-11-25T23:46:42.387Z,76.33
2022-11-25T23:52:07.777Z,76.71
2022-11-25T23:57:31.444Z,76.26
